Time;durP1;ratioP1;P1;durP2;ratioP2;P2;SDS_P1;SDS_P2;PMS_P1;PMS_P2;Temp;Humidity;BMP_temperature;BMP_pressure;BME280_temperature;BME280_humidity;BME280_pressure;Samples;Min_cycle;Max_cycle;Signal;HPM_P1;HPM_P2
2023/04/30 00:00:26;;;;;;;8.07;5.00;;;;;;;9.88;100.00;97562.94;5015878;28;20123;-57
2023/04/30 00:02:53;;;;;;;10.88;4.32;;;;;;;9.91;100.00;97562.44;5013533;28;20087;-56
2023/04/30 00:05:20;;;;;;;6.25;4.32;;;;;;;9.99;100.00;97559.34;5014059;28;20508;-59
2023/04/30 00:07:46;;;;;;;7.25;4.57;;;;;;;9.99;100.00;97553.13;5012696;28;20125;-57
2023/04/30 00:10:13;;;;;;;7.78;4.78;;;;;;;9.89;100.00;97557.28;5015607;28;20480;-58
2023/04/30 00:12:39;;;;;;;8.02;4.55;;;;;;;9.82;100.00;97551.22;5015844;28;20129;-59
2023/04/30 00:15:06;;;;;;;7.25;4.75;;;;;;;9.80;100.00;97556.03;5013003;28;20045;-58
2023/04/30 00:17:33;;;;;;;5.70;3.72;;;;;;;9.81;100.00;97554.16;5013334;28;21581;-58
2023/04/30 00:20:00;;;;;;;5.97;3.92;;;;;;;9.84;100.00;97559.09;5015992;28;20055;-57
2023/04/30 00:22:26;;;;;;;7.40;4.65;;;;;;;9.76;100.00;97555.72;5016392;28;20759;-58
2023/04/30 00:24:53;;;;;;;9.10;4.97;;;;;;;9.67;100.00;97553.63;5018713;28;20045;-56
2023/04/30 00:27:19;;;;;;;7.85;4.40;;;;;;;9.69;100.00;97555.03;5014496;28;20061;-57
2023/04/30 00:29:46;;;;;;;6.88;4.47;;;;;;;9.74;100.00;97557.81;5022013;28;20038;-58
2023/04/30 00:32:13;;;;;;;7.30;4.90;;;;;;;9.72;100.00;97553.72;5031970;28;20045;-58
2023/04/30 00:34:40;;;;;;;7.97;5.25;;;;;;;9.73;100.00;97563.50;5012397;28;20045;-58
2023/04/30 00:37:07;;;;;;;8.02;4.90;;;;;;;9.66;100.00;97562.81;5012731;28;20041;-58
2023/04/30 00:39:33;;;;;;;7.35;5.22;;;;;;;9.55;100.00;97573.41;5020120;28;20057;-58
2023/04/30 00:42:01;;;;;;;9.95;5.50;;;;;;;9.57;100.00;97567.75;5022801;28;20045;-58
2023/04/30 00:44:27;;;;;;;9.90;5.20;;;;;;;9.59;100.00;97571.84;5013642;28;20045;-59
2023/04/30 00:46:54;;;;;;;8.07;5.35;;;;;;;9.57;100.00;97576.69;5015101;28;20681;-58
2023/04/30 00:49:21;;;;;;;11.20;5.80;;;;;;;9.61;100.00;97571.63;5019388;28;20120;-57
2023/04/30 00:51:48;;;;;;;9.40;5.35;;;;;;;9.61;100.00;97568.91;5018524;28;20045;-58
2023/04/30 00:54:15;;;;;;;9.35;5.63;;;;;;;9.54;100.00;97573.66;5018976;28;20041;-58
2023/04/30 00:56:41;;;;;;;8.73;5.00;;;;;;;9.58;100.00;97569.44;5018427;28;20045;-56
2023/04/30 00:59:09;;;;;;;10.07;5.32;;;;;;;9.52;100.00;97571.19;5014281;28;20116;-58
2023/04/30 01:01:36;;;;;;;8.48;5.20;;;;;;;9.53;100.00;97572.00;5017713;28;20120;-58
2023/04/30 01:04:03;;;;;;;10.15;5.55;;;;;;;9.52;100.00;97567.66;5016398;28;20041;-56
2023/04/30 01:06:30;;;;;;;8.52;6.18;;;;;;;9.43;100.00;97565.34;5017217;28;20053;-59
2023/04/30 01:08:57;;;;;;;9.38;5.57;;;;;;;9.46;100.00;97558.63;5016026;28;20525;-59
2023/04/30 01:11:30;;;;;;;10.45;6.10;;;;;;;9.42;100.00;97561.00;5017232;28;20520;-59
2023/04/30 01:14:09;;;;;;;9.13;5.78;;;;;;;9.47;100.00;97571.91;5017964;28;20049;-58
2023/04/30 01:16:42;;;;;;;9.77;5.72;;;;;;;9.55;100.00;97565.28;5016779;28;20045;-58
2023/04/30 01:19:15;;;;;;;10.38;5.85;;;;;;;9.57;100.00;97565.06;5015696;28;20044;-59
2023/04/30 01:21:42;;;;;;;8.00;5.30;;;;;;;9.61;100.00;97560.81;5015289;28;21805;-58
2023/04/30 01:24:42;;;;;;;8.98;5.25;;;;;;;9.50;100.00;97555.22;5014935;28;20440;-59
2023/04/30 01:27:30;;;;;;;9.85;5.63;;;;;;;9.52;100.00;97548.75;5013435;28;20115;-59
2023/04/30 01:29:59;;;;;;;10.45;6.25;;;;;;;9.49;100.00;97550.88;5043240;28;20072;-57
2023/04/30 01:32:25;;;;;;;9.18;6.28;;;;;;;9.40;100.00;97554.19;5018143;28;20193;-55
2023/04/30 01:34:52;;;;;;;10.18;6.30;;;;;;;9.43;100.00;97546.41;5018140;28;20470;-58
2023/04/30 01:37:42;;;;;;;9.90;5.82;;;;;;;9.55;100.00;97548.28;5016750;28;20509;-59
2023/04/30 01:40:34;;;;;;;8.70;5.40;;;;;;;9.53;100.00;97544.97;5016082;28;20053;-57
2023/04/30 01:43:16;;;;;;;9.32;6.05;;;;;;;9.58;100.00;97545.09;5022510;28;20128;-55
2023/04/30 01:45:49;;;;;;;9.98;6.43;;;;;;;9.52;100.00;97549.56;5001038;28;20832;-58
2023/04/30 01:48:31;;;;;;;10.30;6.25;;;;;;;9.50;100.00;97549.81;5010161;28;20050;-56
2023/04/30 01:51:08;;;;;;;9.48;6.32;;;;;;;9.56;100.00;97547.19;5016714;28;20049;-58
2023/04/30 01:53:44;;;;;;;8.35;5.57;;;;;;;9.62;100.00;97548.97;5019363;28;20048;-57
2023/04/30 01:56:26;;;;;;;8.57;5.75;;;;;;;9.41;100.00;97555.84;5014159;28;20048;-57
2023/04/30 01:58:53;;;;;;;9.48;5.68;;;;;;;9.24;100.00;97549.31;5017858;28;20755;-58
2023/04/30 02:01:27;;;;;;;9.43;6.80;;;;;;;9.28;100.00;97551.53;5013642;28;20042;-58
2023/04/30 02:03:54;;;;;;;9.75;6.60;;;;;;;9.26;100.00;97549.06;5015962;28;20516;-59
2023/04/30 02:06:26;;;;;;;10.38;6.63;;;;;;;9.31;100.00;97545.63;5014281;28;20127;-59
2023/04/30 02:08:54;;;;;;;9.10;6.20;;;;;;;9.19;100.00;97548.38;5017525;28;20065;-58
2023/04/30 02:11:24;;;;;;;10.95;6.63;;;;;;;9.11;100.00;97544.16;5020068;28;20052;-59
2023/04/30 02:13:51;;;;;;;14.50;7.68;;;;;;;9.09;100.00;97540.88;5016845;28;20042;-58
2023/04/30 02:16:18;;;;;;;10.88;7.20;;;;;;;9.06;100.00;97533.25;5016887;28;20103;-58
2023/04/30 02:18:45;;;;;;;12.57;7.50;;;;;;;9.00;100.00;97545.00;5012874;28;20412;-59
2023/04/30 02:21:12;;;;;;;12.00;8.18;;;;;;;8.98;100.00;97534.44;5019575;28;20049;-58
2023/04/30 02:23:39;;;;;;;12.20;7.55;;;;;;;9.01;100.00;97538.53;5019630;28;20038;-58
2023/04/30 02:26:06;;;;;;;11.43;7.18;;;;;;;8.98;100.00;97537.97;5018457;28;20049;-59
2023/04/30 02:28:33;;;;;;;12.07;7.18;;;;;;;8.94;100.00;97542.19;5016554;28;20083;-57
2023/04/30 02:31:00;;;;;;;12.20;7.45;;;;;;;8.99;100.00;97544.16;5016102;28;20618;-57
2023/04/30 02:33:26;;;;;;;10.63;7.60;;;;;;;9.06;100.00;97546.75;5017570;28;20160;-58
2023/04/30 02:35:54;;;;;;;10.52;6.88;;;;;;;9.09;100.00;97544.41;5015818;28;20541;-58
2023/04/30 02:38:20;;;;;;;9.57;6.43;;;;;;;9.10;100.00;97545.22;5018749;28;20163;-56
2023/04/30 02:40:47;;;;;;;9.80;6.80;;;;;;;8.97;100.00;97540.91;5020913;28;20565;-57
2023/04/30 02:43:13;;;;;;;11.77;7.32;;;;;;;8.96;100.00;97550.06;5023006;28;20033;-54
2023/04/30 02:45:40;;;;;;;11.52;7.30;;;;;;;8.98;100.00;97548.78;5022800;28;20666;-58
2023/04/30 02:48:07;;;;;;;11.63;7.97;;;;;;;9.03;100.00;97541.84;5016286;28;20071;-57
2023/04/30 02:50:34;;;;;;;10.85;7.32;;;;;;;8.95;100.00;97549.25;5015837;28;20044;-56
2023/04/30 02:53:00;;;;;;;12.55;8.43;;;;;;;8.93;100.00;97547.84;5021624;28;20606;-57
2023/04/30 02:55:27;;;;;;;10.73;6.57;;;;;;;8.96;100.00;97552.78;5019758;28;20056;-58
2023/04/30 02:57:53;;;;;;;12.77;7.68;;;;;;;8.89;100.00;97547.50;5014524;28;20041;-58
2023/04/30 03:00:20;;;;;;;12.43;7.90;;;;;;;8.88;100.00;97553.13;5022694;28;20529;-57
2023/04/30 03:02:47;;;;;;;11.60;7.30;;;;;;;8.93;100.00;97550.53;5016412;28;20432;-58
2023/04/30 03:05:14;;;;;;;11.65;7.93;;;;;;;8.91;100.00;97544.53;5019991;28;20091;-57
2023/04/30 03:07:41;;;;;;;13.38;7.45;;;;;;;8.90;100.00;97542.91;5016678;28;20045;-56
2023/04/30 03:10:08;;;;;;;11.20;7.80;;;;;;;8.95;100.00;97543.84;5021841;28;20037;-56
2023/04/30 03:12:35;;;;;;;12.32;7.00;;;;;;;8.80;100.00;97544.31;5025253;28;20025;-58
2023/04/30 03:15:01;;;;;;;11.88;7.82;;;;;;;8.76;100.00;97540.44;5020168;28;20049;-58
2023/04/30 03:17:28;;;;;;;11.23;7.53;;;;;;;8.62;100.00;97539.06;5015230;28;20049;-58
2023/04/30 03:19:54;;;;;;;11.65;7.43;;;;;;;8.58;100.00;97538.69;5020114;28;20072;-56
2023/04/30 03:22:22;;;;;;;12.50;7.97;;;;;;;8.52;100.00;97536.91;5023126;28;20072;-58
2023/04/30 03:24:49;;;;;;;12.27;7.65;;;;;;;8.53;100.00;97536.72;5017135;28;20053;-58
2023/04/30 03:27:16;;;;;;;13.23;7.93;;;;;;;8.50;100.00;97539.84;5017363;28;20038;-58
2023/04/30 03:29:42;;;;;;;13.43;8.32;;;;;;;8.49;100.00;97537.38;5020256;28;20452;-58
2023/04/30 03:32:09;;;;;;;14.45;8.65;;;;;;;8.48;100.00;97543.84;5012247;28;20050;-58
2023/04/30 03:34:35;;;;;;;10.63;7.45;;;;;;;8.25;100.00;97542.78;5019817;28;20064;-58
2023/04/30 03:37:02;;;;;;;11.98;7.50;;;;;;;7.88;100.00;97547.25;5019493;28;20049;-58
2023/04/30 03:39:29;;;;;;;13.48;8.27;;;;;;;7.65;100.00;97548.00;5016878;28;20026;-58
2023/04/30 03:41:55;;;;;;;13.52;7.22;;;;;;;7.64;100.00;97549.06;5020914;28;20133;-58
2023/04/30 03:44:22;;;;;;;13.63;9.63;;;;;;;7.65;100.00;97548.81;5016890;28;20124;-57
2023/04/30 03:46:48;;;;;;;13.85;8.82;;;;;;;7.77;100.00;97550.72;5014239;28;20693;-58
2023/04/30 03:49:15;;;;;;;12.10;8.30;;;;;;;7.84;100.00;97551.47;5020596;28;20132;-59
2023/04/30 03:51:41;;;;;;;12.85;8.30;;;;;;;7.94;100.00;97551.75;5015567;28;20101;-58
2023/04/30 03:54:08;;;;;;;11.02;7.78;;;;;;;8.00;100.00;97547.28;5017871;28;20049;-58
2023/04/30 03:56:36;;;;;;;11.40;8.23;;;;;;;7.88;100.00;97546.41;5014148;28;20065;-59
2023/04/30 03:59:04;;;;;;;11.15;7.65;;;;;;;7.92;100.00;97545.72;5018012;28;20505;-58
2023/04/30 04:01:31;;;;;;;12.55;8.05;;;;;;;8.02;100.00;97545.19;5027123;28;20049;-58
2023/04/30 04:03:58;;;;;;;12.18;7.88;;;;;;;8.12;100.00;97539.22;5023113;28;20517;-58
2023/04/30 04:06:25;;;;;;;13.60;8.50;;;;;;;8.19;100.00;97547.22;5019160;28;20124;-58
2023/04/30 04:08:53;;;;;;;12.68;7.32;;;;;;;7.89;100.00;97548.09;5019663;28;20136;-58
2023/04/30 04:11:21;;;;;;;12.75;7.45;;;;;;;7.67;100.00;97548.59;5021261;28;20568;-58
2023/04/30 04:13:47;;;;;;;11.70;6.93;;;;;;;7.51;100.00;97550.03;5026905;28;20628;-58
2023/04/30 04:16:14;;;;;;;14.30;8.23;;;;;;;7.49;100.00;97554.84;5021879;28;20100;-58
2023/04/30 04:18:41;;;;;;;12.45;8.05;;;;;;;7.54;100.00;97558.50;5020063;28;20049;-57
2023/04/30 04:21:07;;;;;;;13.57;9.20;;;;;;;7.37;100.00;97561.00;5020205;28;20075;-58
2023/04/30 04:23:34;;;;;;;19.48;8.77;;;;;;;7.26;100.00;97559.06;5019768;28;20051;-58
2023/04/30 04:26:00;;;;;;;14.80;8.10;;;;;;;7.31;100.00;97558.38;5017458;28;20511;-57
2023/04/30 04:28:27;;;;;;;12.70;8.65;;;;;;;7.45;100.00;97559.88;5016068;28;20306;-58
2023/04/30 04:30:54;;;;;;;11.57;7.85;;;;;;;7.57;100.00;97565.31;5017857;28;20060;-56
2023/04/30 04:33:20;;;;;;;14.35;8.60;;;;;;;7.69;100.00;97562.66;5017339;28;20041;-58
2023/04/30 04:35:47;;;;;;;14.43;8.40;;;;;;;7.80;100.00;97561.06;5018561;28;20449;-57
2023/04/30 04:38:14;;;;;;;11.85;8.30;;;;;;;7.91;100.00;97565.66;5021705;28;20045;-58
2023/04/30 04:40:41;;;;;;;15.45;9.02;;;;;;;8.01;100.00;97565.13;5013715;28;20046;-57
2023/04/30 04:43:07;;;;;;;12.60;8.60;;;;;;;8.10;100.00;97562.91;5022360;28;20045;-58
2023/04/30 04:45:34;;;;;;;13.88;8.02;;;;;;;8.18;100.00;97564.44;5026019;28;20124;-58
2023/04/30 04:48:01;;;;;;;12.65;8.10;;;;;;;8.28;100.00;97569.25;5022407;28;20037;-57
2023/04/30 04:50:28;;;;;;;12.32;7.88;;;;;;;8.33;100.00;97564.81;5009293;28;20120;-57
2023/04/30 04:52:54;;;;;;;13.07;8.35;;;;;;;8.24;100.00;97568.06;5018756;28;20088;-59
2023/04/30 04:55:21;;;;;;;12.07;7.53;;;;;;;8.09;100.00;97577.44;5012250;28;20077;-57
2023/04/30 04:57:47;;;;;;;12.55;8.30;;;;;;;7.94;100.00;97575.16;5011240;28;20048;-59
2023/04/30 05:00:14;;;;;;;16.33;8.68;;;;;;;8.05;100.00;97569.00;5019527;28;20494;-58
2023/04/30 05:02:40;;;;;;;11.40;8.40;;;;;;;8.12;100.00;97578.84;5017204;28;20050;-58
2023/04/30 05:05:08;;;;;;;16.30;8.30;;;;;;;8.10;100.00;97565.59;5015842;28;20058;-56
2023/04/30 05:07:34;;;;;;;15.60;7.97;;;;;;;7.95;100.00;97571.41;5018848;28;20041;-58
2023/04/30 05:10:01;;;;;;;12.30;8.73;;;;;;;8.00;100.00;97568.84;5019507;28;20080;-59
2023/04/30 05:12:29;;;;;;;13.90;9.13;;;;;;;8.17;100.00;97569.03;5022955;28;20045;-56
2023/04/30 05:14:55;;;;;;;15.02;9.48;;;;;;;8.31;100.00;97574.19;5021468;28;20107;-59
2023/04/30 05:17:21;;;;;;;13.95;8.93;;;;;;;8.52;100.00;97578.19;5016595;28;20049;-56
2023/04/30 05:19:49;;;;;;;13.25;9.40;;;;;;;8.62;100.00;97574.16;5022058;28;20077;-58
2023/04/30 05:22:16;;;;;;;12.13;7.60;;;;;;;8.70;100.00;97582.72;5013890;28;20588;-58
2023/04/30 05:24:43;;;;;;;13.50;7.88;;;;;;;8.74;100.00;97571.44;5013505;28;20424;-57
2023/04/30 05:27:09;;;;;;;18.00;8.18;;;;;;;8.78;100.00;97572.63;5018665;28;20053;-57
2023/04/30 05:29:35;;;;;;;14.38;8.88;;;;;;;8.78;100.00;97575.31;5021096;28;20491;-58
2023/04/30 05:32:02;;;;;;;15.32;9.93;;;;;;;8.83;100.00;97572.72;5019687;28;20645;-57
2023/04/30 05:34:29;;;;;;;13.20;8.55;;;;;;;8.92;100.00;97576.72;5022002;28;20059;-58
2023/04/30 05:36:55;;;;;;;13.88;9.00;;;;;;;9.00;100.00;97575.53;5017021;28;20049;-57
2023/04/30 05:39:22;;;;;;;13.60;8.73;;;;;;;9.11;100.00;97577.38;5016444;28;20781;-59
2023/04/30 05:41:48;;;;;;;13.32;8.75;;;;;;;9.17;100.00;97575.63;5011217;28;20054;-58
2023/04/30 05:44:17;;;;;;;13.85;9.35;;;;;;;9.28;100.00;97570.44;5014514;28;20053;-59
2023/04/30 05:46:44;;;;;;;14.15;7.88;;;;;;;9.35;100.00;97563.84;5015928;28;20060;-59
2023/04/30 05:49:10;;;;;;;11.93;8.35;;;;;;;9.34;100.00;97564.06;5015584;28;20041;-58
2023/04/30 05:51:37;;;;;;;12.45;8.48;;;;;;;9.42;100.00;97565.56;5018103;28;20099;-59
2023/04/30 05:54:03;;;;;;;13.75;8.30;;;;;;;9.54;100.00;97566.38;5015594;28;20048;-59
2023/04/30 05:56:30;;;;;;;12.85;8.73;;;;;;;9.48;100.00;97568.13;5019694;28;20124;-59
2023/04/30 05:58:56;;;;;;;11.70;8.27;;;;;;;9.71;100.00;97558.31;5016082;28;20042;-58
2023/04/30 06:01:24;;;;;;;11.60;7.57;;;;;;;9.83;100.00;97571.78;5017612;28;20045;-59
2023/04/30 06:03:51;;;;;;;12.52;8.52;;;;;;;9.78;100.00;97570.84;5021450;28;20041;-59
2023/04/30 06:06:17;;;;;;;12.32;8.68;;;;;;;9.88;100.00;97571.06;5014336;28;20041;-60
2023/04/30 06:08:44;;;;;;;13.02;8.73;;;;;;;9.91;99.64;97580.56;5007924;28;20742;-60
2023/04/30 06:11:14;;;;;;;11.65;8.27;;;;;;;10.07;98.34;97581.66;5014537;28;20448;-58
2023/04/30 06:13:40;;;;;;;12.48;9.13;;;;;;;10.21;97.83;97579.47;5016220;28;20068;-58
2023/04/30 06:16:07;;;;;;;13.05;8.70;;;;;;;10.25;96.13;97577.94;5018672;28;20037;-59
2023/04/30 06:18:34;;;;;;;11.32;8.75;;;;;;;10.23;96.09;97574.63;5015544;28;20079;-60
2023/04/30 06:21:00;;;;;;;13.75;8.43;;;;;;;10.03;96.13;97575.94;5020437;28;20116;-58
2023/04/30 06:23:27;;;;;;;14.18;9.85;;;;;;;10.06;96.90;97580.03;5020389;28;20057;-59
2023/04/30 06:25:53;;;;;;;13.85;9.13;;;;;;;9.96;96.32;97573.38;5021083;28;20072;-59
2023/04/30 06:28:20;;;;;;;14.30;9.23;;;;;;;10.00;96.56;97582.63;5016357;28;20036;-60
2023/04/30 06:30:46;;;;;;;12.77;8.60;;;;;;;10.07;95.34;97579.78;5024955;28;20103;-60
2023/04/30 06:33:13;;;;;;;15.93;9.98;;;;;;;10.16;95.94;97574.78;5018103;28;20140;-56
2023/04/30 06:35:39;;;;;;;12.07;8.98;;;;;;;10.17;95.95;97583.72;5019557;28;20041;-59
2023/04/30 06:38:06;;;;;;;13.10;9.40;;;;;;;10.18;96.10;97583.50;5016364;28;20362;-56
2023/04/30 06:40:33;;;;;;;14.48;9.77;;;;;;;10.25;96.23;97580.63;5021901;28;20099;-58
2023/04/30 06:42:59;;;;;;;12.57;9.30;;;;;;;10.51;95.01;97579.19;5025086;28;20064;-56
2023/04/30 06:45:26;;;;;;;15.13;10.05;;;;;;;10.65;93.78;97578.88;5021142;28;20143;-58
2023/04/30 06:47:52;;;;;;;12.13;9.10;;;;;;;10.51;93.30;97584.59;5013424;28;20052;-57
2023/04/30 06:50:20;;;;;;;13.27;9.15;;;;;;;10.72;92.43;97581.41;5015011;28;20049;-59
2023/04/30 06:52:47;;;;;;;11.93;8.88;;;;;;;10.74;91.55;97585.50;5021269;28;20724;-58
2023/04/30 06:55:13;;;;;;;13.25;10.02;;;;;;;10.64;92.23;97590.75;5018782;28;20041;-59
2023/04/30 06:57:40;;;;;;;13.57;9.38;;;;;;;10.79;91.72;97593.69;5014833;28;20088;-57
2023/04/30 07:00:07;;;;;;;11.32;8.27;;;;;;;10.83;90.71;97594.00;5019281;28;20112;-58
2023/04/30 07:02:34;;;;;;;13.10;8.77;;;;;;;10.85;89.61;97591.88;5013101;28;20103;-59
2023/04/30 07:05:01;;;;;;;12.88;8.50;;;;;;;10.93;89.65;97585.22;5017353;28;20402;-58
2023/04/30 07:07:28;;;;;;;14.57;9.95;;;;;;;10.95;89.67;97593.09;5022023;28;20045;-59
2023/04/30 07:09:54;;;;;;;12.32;9.20;;;;;;;11.11;88.81;97588.72;5016647;28;20041;-58
2023/04/30 07:12:22;;;;;;;12.20;8.40;;;;;;;11.21;87.62;97590.75;5013690;28;20049;-58
2023/04/30 07:14:48;;;;;;;15.25;8.25;;;;;;;11.23;87.25;97586.72;5017356;28;20048;-59
2023/04/30 07:17:15;;;;;;;15.07;8.75;;;;;;;11.26;87.07;97583.50;5018020;28;20073;-60
2023/04/30 07:19:42;;;;;;;12.05;8.88;;;;;;;11.03;88.17;97576.41;5017930;28;20053;-59
2023/04/30 07:22:08;;;;;;;12.73;9.25;;;;;;;11.20;87.35;97576.38;5014864;28;20099;-60
2023/04/30 07:24:35;;;;;;;12.98;8.75;;;;;;;11.30;88.75;97576.50;5017852;28;20424;-60
2023/04/30 07:27:02;;;;;;;13.90;9.15;;;;;;;11.44;86.64;97584.25;5019365;28;20046;-60
2023/04/30 07:29:29;;;;;;;13.65;9.02;;;;;;;11.25;87.08;97579.16;5019427;28;20041;-59
2023/04/30 07:31:56;;;;;;;15.13;9.45;;;;;;;11.24;88.76;97577.50;5021431;28;20103;-57
2023/04/30 07:34:23;;;;;;;14.93;9.25;;;;;;;11.24;87.89;97577.50;5028747;28;20041;-60
2023/04/30 07:36:50;;;;;;;13.02;8.70;;;;;;;11.30;86.93;97575.69;5024547;28;20335;-59
2023/04/30 07:39:16;;;;;;;11.82;8.02;;;;;;;11.34;85.47;97567.84;5031779;28;20073;-58
2023/04/30 07:41:43;;;;;;;11.25;8.18;;;;;;;11.48;85.08;97573.72;5019686;28;20056;-56
2023/04/30 07:44:10;;;;;;;12.57;8.48;;;;;;;11.54;84.20;97562.69;5020862;28;20048;-58
2023/04/30 07:46:37;;;;;;;12.55;8.23;;;;;;;11.65;84.13;97563.63;5021698;28;20091;-59
2023/04/30 07:49:04;;;;;;;13.13;8.30;;;;;;;11.54;84.50;97568.09;5022872;28;20409;-59
2023/04/30 07:51:31;;;;;;;12.75;8.20;;;;;;;11.70;84.62;97552.00;5024581;28;20521;-59
2023/04/30 07:53:59;;;;;;;11.75;8.23;;;;;;;11.89;83.51;97557.91;5023643;28;20048;-58
2023/04/30 07:56:25;;;;;;;12.30;7.72;;;;;;;11.93;81.50;97560.91;5023046;28;20493;-57
2023/04/30 07:58:52;;;;;;;11.63;8.30;;;;;;;12.08;82.09;97557.56;5018194;28;20042;-59
2023/04/30 08:01:18;;;;;;;11.48;8.18;;;;;;;12.00;83.14;97560.72;5023701;28;20045;-59
2023/04/30 08:03:45;;;;;;;11.85;8.38;;;;;;;12.22;82.73;97557.97;5019909;28;20072;-59
2023/04/30 08:06:12;;;;;;;10.88;7.90;;;;;;;12.38;82.11;97560.81;5020023;28;20073;-58
2023/04/30 08:08:38;;;;;;;11.25;7.72;;;;;;;12.58;78.69;97555.56;5021467;28;20579;-59
2023/04/30 08:11:05;;;;;;;11.43;7.88;;;;;;;12.72;77.39;97557.81;5021525;28;20048;-59
2023/04/30 08:13:31;;;;;;;12.07;7.70;;;;;;;12.84;76.88;97563.88;5022932;28;20095;-58
2023/04/30 08:15:58;;;;;;;9.57;6.50;;;;;;;12.80;76.29;97559.22;5024123;28;20505;-59
2023/04/30 08:18:24;;;;;;;10.82;7.07;;;;;;;12.81;74.83;97564.41;5022797;28;20034;-59
2023/04/30 08:20:51;;;;;;;10.00;6.55;;;;;;;12.67;74.49;97560.47;5023353;28;20154;-58
2023/04/30 08:23:17;;;;;;;9.82;6.45;;;;;;;12.78;74.41;97558.69;5025701;28;20082;-60
2023/04/30 08:25:44;;;;;;;8.27;5.78;;;;;;;12.95;74.31;97564.75;5020163;28;20776;-58
2023/04/30 08:28:10;;;;;;;8.82;6.35;;;;;;;12.99;72.09;97565.88;5028822;28;20120;-58
2023/04/30 08:30:38;;;;;;;8.40;5.50;;;;;;;12.97;71.51;97568.03;5027125;28;20052;-58
2023/04/30 08:33:04;;;;;;;9.98;5.28;;;;;;;13.06;71.01;97567.53;5018199;28;20096;-59
2023/04/30 08:35:31;;;;;;;8.55;5.90;;;;;;;13.11;69.88;97567.53;5016353;28;20799;-59
2023/04/30 08:37:57;;;;;;;9.98;6.05;;;;;;;13.25;69.92;97565.19;5020610;28;20041;-60
2023/04/30 08:40:25;;;;;;;7.95;5.40;;;;;;;13.24;69.24;97567.06;5017175;28;20041;-60
2023/04/30 08:43:13;;;;;;;9.18;5.50;;;;;;;13.24;68.74;97561.63;5019090;28;20047;-59
2023/04/30 08:45:40;;;;;;;8.55;6.07;;;;;;;13.51;69.36;97559.88;5011609;28;20050;-59
2023/04/30 08:48:11;;;;;;;8.32;5.35;;;;;;;13.68;66.78;97548.78;5022806;28;20041;-60
2023/04/30 08:50:37;;;;;;;7.78;5.30;;;;;;;13.51;65.51;97557.16;5019261;28;20045;-60
2023/04/30 08:53:05;;;;;;;7.82;5.38;;;;;;;13.56;66.43;97556.38;5023918;28;20053;-59
2023/04/30 08:55:33;;;;;;;9.82;5.35;;;;;;;13.65;63.98;97560.19;5022846;28;20048;-58
2023/04/30 08:57:59;;;;;;;8.05;4.65;;;;;;;13.77;64.23;97551.78;5020229;28;20602;-59
2023/04/30 09:00:26;;;;;;;7.30;4.45;;;;;;;13.77;64.02;97549.06;5021804;28;20133;-56
2023/04/30 09:02:53;;;;;;;5.15;3.30;;;;;;;13.68;59.86;97559.66;5022964;28;20493;-58
2023/04/30 09:05:19;;;;;;;5.18;3.00;;;;;;;13.69;58.62;97557.75;5015547;28;20121;-57
2023/04/30 09:07:46;;;;;;;5.03;3.45;;;;;;;13.72;60.59;97558.03;5021359;28;20782;-59
2023/04/30 09:10:20;;;;;;;5.63;3.95;;;;;;;13.48;62.16;97553.06;5022239;28;20041;-57
2023/04/30 09:13:00;;;;;;;8.80;3.85;;;;;;;13.85;61.53;97553.16;5019021;28;20069;-56
2023/04/30 09:15:27;;;;;;;8.23;3.88;;;;;;;13.94;60.68;97546.13;5019249;28;20518;-59
2023/04/30 09:18:10;;;;;;;7.47;4.18;;;;;;;13.77;60.61;97558.06;5021192;28;20033;-58
2023/04/30 09:20:53;;;;;;;6.00;4.05;;;;;;;13.70;60.42;97549.31;5024355;28;20049;-58
2023/04/30 09:23:19;;;;;;;6.68;4.20;;;;;;;14.05;60.56;97538.78;5020036;28;20465;-59
2023/04/30 09:25:46;;;;;;;9.13;5.28;;;;;;;14.26;59.68;97557.88;5017196;28;20053;-57
2023/04/30 09:28:13;;;;;;;8.05;4.30;;;;;;;13.96;57.92;97543.94;5016170;28;20485;-56
2023/04/30 09:30:41;;;;;;;6.40;3.80;;;;;;;13.96;58.40;97554.03;5021973;28;20037;-59
2023/04/30 09:33:08;;;;;;;6.10;3.33;;;;;;;14.20;57.81;97553.50;5011560;28;20076;-58
2023/04/30 09:35:40;;;;;;;5.80;3.03;;;;;;;14.01;57.44;97549.38;5016814;28;20568;-57
2023/04/30 09:38:23;;;;;;;5.85;2.78;;;;;;;14.35;56.56;97552.69;5019572;28;20045;-59
2023/04/30 09:40:50;;;;;;;4.60;3.20;;;;;;;14.14;56.25;97556.22;5021230;28;20096;-59
2023/04/30 09:43:16;;;;;;;5.55;3.38;;;;;;;13.95;56.76;97552.38;5018716;28;20038;-58
2023/04/30 09:45:50;;;;;;;5.63;3.15;;;;;;;14.14;55.98;97558.94;5022939;28;20052;-59
2023/04/30 09:48:21;;;;;;;5.30;2.92;;;;;;;14.10;56.53;97566.00;5017378;28;20124;-58
2023/04/30 09:50:48;;;;;;;;;;;;;;;14.18;55.99;97560.03;5021778;28;20063;-57
2023/04/30 09:53:18;;;;;;;6.47;2.92;;;;;;;14.17;56.77;97555.69;5025954;28;19921;-59
2023/04/30 09:55:47;;;;;;;6.38;3.25;;;;;;;14.07;56.91;97554.84;5019029;28;20489;-58
2023/04/30 09:58:15;;;;;;;5.43;3.00;;;;;;;14.06;56.08;97562.19;5021946;28;20049;-59
2023/04/30 10:00:44;;;;;;;4.30;2.72;;;;;;;13.95;56.36;97553.19;5025023;28;20397;-59
2023/04/30 10:03:13;;;;;;;4.47;2.90;;;;;;;14.40;55.88;97556.22;5022422;28;20394;-58
2023/04/30 10:05:43;;;;;;;4.88;2.95;;;;;;;14.81;53.55;97554.56;5023512;28;20133;-59
2023/04/30 10:08:17;;;;;;;6.95;4.40;;;;;;;15.00;52.93;97549.34;5029388;28;20124;-59
2023/04/30 10:10:49;;;;;;;5.28;3.70;;;;;;;14.88;53.67;97552.38;5022438;28;20541;-59
2023/04/30 10:13:19;;;;;;;5.97;3.40;;;;;;;15.17;52.08;97556.41;5020230;28;20045;-59
2023/04/30 10:15:50;;;;;;;6.28;3.10;;;;;;;15.13;51.82;97553.41;5027395;28;20523;-59
2023/04/30 10:18:18;;;;;;;4.95;3.10;;;;;;;14.51;53.28;97550.75;5022482;28;20045;-57
2023/04/30 10:20:46;;;;;;;4.53;2.67;;;;;;;14.60;54.25;97551.88;5024022;28;20174;-56
2023/04/30 10:23:14;;;;;;;6.43;3.47;;;;;;;14.66;54.27;97547.19;5023365;28;20073;-59
2023/04/30 10:25:40;;;;;;;5.40;3.03;;;;;;;14.67;54.03;97548.84;5024146;28;20614;-58
2023/04/30 10:28:07;;;;;;;6.65;3.55;;;;;;;14.38;54.83;97544.78;5022090;28;20117;-58
2023/04/30 10:30:34;;;;;;;6.70;3.10;;;;;;;14.18;55.36;97540.13;5017773;28;20401;-58
2023/04/30 10:33:09;;;;;;;4.68;2.70;;;;;;;14.50;54.19;97546.41;5022059;28;20042;-58
2023/04/30 10:36:01;;;;;;;5.57;2.90;;;;;;;14.41;53.81;97538.78;5020077;28;20068;-58
2023/04/30 10:38:29;;;;;;;;;;;;;;;14.33;53.46;97543.97;5012299;28;20073;-57
2023/04/30 10:40:57;;;;;;;5.70;3.08;;;;;;;14.34;53.81;97538.22;5021135;28;20018;-58
2023/04/30 10:43:25;;;;;;;5.60;2.65;;;;;;;14.73;53.54;97538.75;5020042;28;20045;-59
2023/04/30 10:45:51;;;;;;;5.18;2.97;;;;;;;14.98;52.96;97534.38;5021231;28;20045;-59
2023/04/30 10:48:25;;;;;;;4.53;2.70;;;;;;;15.04;51.41;97523.16;5017393;28;20497;-59
2023/04/30 10:50:55;;;;;;;4.38;3.00;;;;;;;14.86;51.71;97527.31;5015601;28;20049;-58
2023/04/30 10:53:24;;;;;;;4.07;2.40;;;;;;;14.86;52.39;97526.50;5021120;28;20609;-58
2023/04/30 10:55:53;;;;;;;4.80;2.55;;;;;;;14.95;50.71;97531.13;5018749;28;20041;-58
2023/04/30 10:58:30;;;;;;;4.68;2.90;;;;;;;15.17;51.02;97531.84;5017904;28;20086;-59
2023/04/30 11:01:05;;;;;;;5.03;2.78;;;;;;;15.50;50.49;97528.72;5018050;28;20045;-59
2023/04/30 11:03:34;;;;;;;5.15;2.95;;;;;;;15.29;50.40;97518.72;5024849;28;20040;-61
2023/04/30 11:06:07;;;;;;;6.40;3.10;;;;;;;15.34;50.23;97517.91;5017655;28;20103;-59
2023/04/30 11:08:35;;;;;;;4.47;2.65;;;;;;;15.51;50.80;97514.78;5017875;28;20041;-60
2023/04/30 11:11:03;;;;;;;4.53;2.92;;;;;;;15.42;50.79;97508.28;5011684;28;20045;-59
2023/04/30 11:13:43;;;;;;;5.20;3.05;;;;;;;15.57;50.14;97510.13;5015320;28;20427;-59
2023/04/30 11:16:10;;;;;;;5.55;3.30;;;;;;;15.48;49.93;97510.72;5020283;28;20116;-59
2023/04/30 11:18:44;;;;;;;5.38;3.00;;;;;;;15.65;49.64;97498.63;5018823;28;20512;-58
2023/04/30 11:21:12;;;;;;;5.63;3.03;;;;;;;16.12;50.02;97504.63;5015767;28;20064;-60
2023/04/30 11:23:43;;;;;;;5.22;3.25;;;;;;;15.62;49.52;97507.38;5014080;28;20084;-60
2023/04/30 11:26:10;;;;;;;5.68;3.00;;;;;;;15.54;50.29;97510.69;5012937;28;20911;-59
2023/04/30 11:28:37;;;;;;;5.80;2.50;;;;;;;15.46;49.49;97506.63;5014554;28;20151;-59
2023/04/30 11:31:04;;;;;;;4.63;2.83;;;;;;;15.21;49.81;97509.22;5017915;28;20036;-58
2023/04/30 11:33:32;;;;;;;6.07;2.95;;;;;;;15.25;49.34;97505.94;5022444;28;20049;-58